createdAt,value
2019-02-14T00:01:29.327Z,99.90
2019-02-14T00:03:57.747Z,99.90
2019-02-14T00:06:26.158Z,99.90
2019-02-14T00:08:54.663Z,99.90
2019-02-14T00:11:23.092Z,99.90
2019-02-14T00:13:51.487Z,99.90
2019-02-14T00:16:19.919Z,99.90
2019-02-14T00:18:48.327Z,99.90
2019-02-14T00:21:16.754Z,99.90
2019-02-14T00:23:45.167Z,99.90
2019-02-14T00:26:13.605Z,99.90
2019-02-14T00:28:42.076Z,99.90
2019-02-14T00:31:10.489Z,99.90
2019-02-14T00:33:38.911Z,99.90
2019-02-14T00:36:07.324Z,99.90
2019-02-14T00:38:35.774Z,99.90
2019-02-14T00:41:04.265Z,99.90
2019-02-14T00:43:32.686Z,99.90
2019-02-14T00:46:01.099Z,99.90
2019-02-14T00:48:29.530Z,99.90
2019-02-14T00:50:57.985Z,99.90
2019-02-14T00:53:26.394Z,99.90
2019-02-14T00:55:54.829Z,99.90
2019-02-14T00:58:23.247Z,99.90
2019-02-14T01:00:51.738Z,99.90
2019-02-14T01:03:20.244Z,99.90
2019-02-14T01:05:48.814Z,99.90
2019-02-14T01:08:17.223Z,99.90
2019-02-14T01:10:45.637Z,99.90
2019-02-14T01:13:14.078Z,99.90
2019-02-14T01:15:43.374Z,99.90
2019-02-14T01:18:11.779Z,99.90
2019-02-14T01:20:40.256Z,99.90
2019-02-14T01:23:08.719Z,99.90
2019-02-14T01:25:37.137Z,99.90
2019-02-14T01:28:05.622Z,99.90
2019-02-14T01:30:34.204Z,99.90
2019-02-14T01:33:02.638Z,99.90
2019-02-14T01:35:31.051Z,99.90
2019-02-14T01:37:59.471Z,99.90
2019-02-14T01:40:28.034Z,99.90
2019-02-14T01:42:56.448Z,99.90
2019-02-14T01:45:24.875Z,99.90
2019-02-14T01:47:53.290Z,99.90
2019-02-14T01:50:21.724Z,99.90
2019-02-14T01:52:50.171Z,99.90
2019-02-14T01:55:18.648Z,99.90
2019-02-14T01:57:47.042Z,99.90
2019-02-14T02:00:15.996Z,99.90
2019-02-14T02:02:44.428Z,99.90
2019-02-14T02:05:12.883Z,99.90
2019-02-14T02:07:41.680Z,99.90
2019-02-14T02:10:13.454Z,99.90
2019-02-14T02:12:41.878Z,99.90
2019-02-14T02:15:13.258Z,99.90
2019-02-14T02:17:41.948Z,99.90
2019-02-14T02:20:11.647Z,99.90
2019-02-14T02:22:40.544Z,99.90
2019-02-14T02:25:11.619Z,99.90
2019-02-14T02:27:40.151Z,99.90
2019-02-14T02:30:11.573Z,99.90
2019-02-14T02:32:40.356Z,99.90
2019-02-14T02:35:09.817Z,99.90
2019-02-14T02:37:38.296Z,99.90
2019-02-14T02:40:09.147Z,99.90
2019-02-14T02:42:37.732Z,99.90
2019-02-14T02:45:09.646Z,99.90
2019-02-14T02:47:38.375Z,99.90
2019-02-14T02:50:09.578Z,99.90
2019-02-14T02:52:38.079Z,99.90
2019-02-14T02:55:08.759Z,99.90
2019-02-14T02:57:37.172Z,99.90
2019-02-14T03:00:14.735Z,99.90
2019-02-14T03:02:43.207Z,99.90
2019-02-14T03:05:13.471Z,99.90
2019-02-14T03:07:41.947Z,99.90
2019-02-14T03:10:12.610Z,99.90
2019-02-14T03:12:41.058Z,99.90
2019-02-14T03:15:14.067Z,99.90
2019-02-14T03:17:42.621Z,99.90
2019-02-14T03:20:12.492Z,99.90
2019-02-14T03:22:40.927Z,99.90
2019-02-14T03:25:17.956Z,99.90
2019-02-14T03:27:46.386Z,99.90
2019-02-14T03:30:16.139Z,99.90
2019-02-14T03:32:44.544Z,99.90
2019-02-14T03:35:13.106Z,99.90
2019-02-14T03:37:41.510Z,99.90
2019-02-14T03:40:11.982Z,99.90
2019-02-14T03:42:40.386Z,99.90
2019-02-14T03:45:14.759Z,99.90
2019-02-14T03:47:43.247Z,99.90
2019-02-14T03:50:12.891Z,99.90
2019-02-14T03:52:41.320Z,99.90
2019-02-14T03:55:10.889Z,99.90
2019-02-14T03:57:39.694Z,99.90
2019-02-14T04:00:16.323Z,99.90
2019-02-14T04:02:44.815Z,99.90
2019-02-14T04:05:13.509Z,99.90
2019-02-14T04:07:41.902Z,99.90
2019-02-14T04:10:12.468Z,99.90
2019-02-14T04:12:40.898Z,99.90
2019-02-14T04:15:12.090Z,99.90
2019-02-14T04:17:40.512Z,99.90
2019-02-14T04:20:10.184Z,99.90
2019-02-14T04:22:38.671Z,99.90
2019-02-14T04:25:08.834Z,99.90
2019-02-14T04:27:37.352Z,99.90
2019-02-14T04:30:09.092Z,99.90
2019-02-14T04:32:37.503Z,99.90
2019-02-14T04:35:06.183Z,99.90
2019-02-14T04:37:34.614Z,99.90
2019-02-14T04:40:03.507Z,99.90
2019-02-14T04:42:32.023Z,99.90
2019-02-14T04:45:00.446Z,99.90
2019-02-14T04:47:28.878Z,99.90
2019-02-14T04:49:57.325Z,99.90
2019-02-14T04:52:25.725Z,99.90
2019-02-14T04:54:54.143Z,99.90
2019-02-14T04:57:23.024Z,99.90
2019-02-14T04:59:51.431Z,99.90
2019-02-14T05:02:19.919Z,99.90
2019-02-14T05:04:48.347Z,99.90
2019-02-14T05:07:16.767Z,99.90
2019-02-14T05:09:45.212Z,99.90
2019-02-14T05:12:13.627Z,99.90
2019-02-14T05:14:42.067Z,99.90
2019-02-14T05:17:10.514Z,99.90
2019-02-14T05:19:38.945Z,99.90
2019-02-14T05:22:07.446Z,99.90
2019-02-14T05:24:35.881Z,99.90
2019-02-14T05:27:04.382Z,99.90
2019-02-14T05:29:32.824Z,99.90
2019-02-14T05:32:01.311Z,99.90
2019-02-14T05:34:29.710Z,99.90
2019-02-14T05:36:58.127Z,99.90
2019-02-14T05:39:26.545Z,99.90
2019-02-14T05:41:54.959Z,99.90
2019-02-14T05:44:23.399Z,99.90
2019-02-14T05:46:51.907Z,99.90
2019-02-14T05:49:20.346Z,99.90
2019-02-14T05:51:48.787Z,99.90
2019-02-14T05:54:17.211Z,99.90
2019-02-14T05:56:45.738Z,99.90
2019-02-14T05:59:14.416Z,99.90
2019-02-14T06:01:42.847Z,99.90
2019-02-14T06:04:11.255Z,99.90
2019-02-14T06:06:39.666Z,99.90
2019-02-14T06:09:08.099Z,99.90
2019-02-14T06:11:36.526Z,99.90
2019-02-14T06:14:05.029Z,99.90
2019-02-14T06:16:33.454Z,99.90
2019-02-14T06:19:01.857Z,99.90
2019-02-14T06:21:30.290Z,99.90
2019-02-14T06:23:58.725Z,99.90
2019-02-14T06:26:27.134Z,99.90
2019-02-14T06:28:55.566Z,99.90
2019-02-14T06:31:23.993Z,99.90
2019-02-14T06:33:52.439Z,99.90
2019-02-14T06:36:20.882Z,99.90
2019-02-14T06:38:49.430Z,99.90
2019-02-14T06:41:17.853Z,99.90
2019-02-14T06:43:46.291Z,99.90
2019-02-14T06:46:14.722Z,99.90
2019-02-14T06:48:43.127Z,99.90
2019-02-14T06:51:11.570Z,99.90
2019-02-14T06:53:39.980Z,99.90
2019-02-14T06:56:08.410Z,99.90
2019-02-14T06:58:36.931Z,99.90
2019-02-14T07:01:05.410Z,99.90
2019-02-14T07:03:33.911Z,99.90
2019-02-14T07:06:02.318Z,99.90
2019-02-14T07:08:30.746Z,99.90
2019-02-14T07:10:59.186Z,99.90
2019-02-14T07:13:27.690Z,99.90
2019-02-14T07:15:56.118Z,99.90
2019-02-14T07:18:24.534Z,99.90
2019-02-14T07:20:52.978Z,99.90
2019-02-14T07:23:21.400Z,99.90
2019-02-14T07:25:49.864Z,99.90
2019-02-14T07:28:18.293Z,99.90
2019-02-14T07:30:46.714Z,99.90
2019-02-14T07:33:15.129Z,99.90
2019-02-14T07:35:43.559Z,99.90
2019-02-14T07:38:11.982Z,99.90
2019-02-14T07:40:40.412Z,99.90
2019-02-14T07:43:08.822Z,99.90
2019-02-14T07:45:37.292Z,99.90
2019-02-14T07:48:05.702Z,99.90
2019-02-14T07:50:34.202Z,99.90
2019-02-14T07:53:02.643Z,99.90
2019-02-14T07:55:31.070Z,99.90
2019-02-14T07:57:59.479Z,99.90
2019-02-14T08:00:27.902Z,99.90
2019-02-14T08:02:56.503Z,99.90
2019-02-14T08:05:25.023Z,99.90
2019-02-14T08:07:53.424Z,99.90
2019-02-14T08:10:22.170Z,99.90
2019-02-14T08:12:50.578Z,99.90
2019-02-14T08:15:19.098Z,99.90
2019-02-14T08:17:47.591Z,99.90
2019-02-14T08:20:21.246Z,99.90
2019-02-14T08:22:49.704Z,99.90
2019-02-14T08:25:18.106Z,99.90
2019-02-14T08:27:46.759Z,99.90
2019-02-14T08:30:17.478Z,99.90
2019-02-14T08:32:45.916Z,99.90
2019-02-14T08:35:14.503Z,99.90
2019-02-14T08:37:45.635Z,99.90
2019-02-14T08:40:22.054Z,99.90
2019-02-14T08:42:50.476Z,99.90
2019-02-14T08:45:19.009Z,99.90
2019-02-14T08:47:47.522Z,99.90
2019-02-14T08:50:16.043Z,99.90
2019-02-14T08:52:44.546Z,99.90
2019-02-14T08:55:13.110Z,99.90
2019-02-14T08:57:41.514Z,99.90
2019-02-14T09:00:13.062Z,99.90
2019-02-14T09:02:41.564Z,99.90
2019-02-14T09:05:10.071Z,99.90
2019-02-14T09:07:38.497Z,99.90
2019-02-14T09:10:10.151Z,99.90
2019-02-14T09:12:38.559Z,99.90
2019-02-14T09:15:09.831Z,99.90
2019-02-14T09:17:38.327Z,99.90
2019-02-14T09:20:12.070Z,99.90
2019-02-14T09:22:40.502Z,99.90
2019-02-14T09:25:09.131Z,99.90
2019-02-14T09:27:37.558Z,99.90
2019-02-14T09:30:08.831Z,99.90
2019-02-14T09:32:37.514Z,99.90
2019-02-14T09:35:08.091Z,99.90
2019-02-14T09:37:36.575Z,99.90
2019-02-14T09:40:11.254Z,99.90
2019-02-14T09:42:39.671Z,99.90
2019-02-14T09:45:10.867Z,99.90
2019-02-14T09:47:39.444Z,99.90
2019-02-14T09:50:12.847Z,99.90
2019-02-14T09:52:41.950Z,99.90
2019-02-14T09:55:12.423Z,99.90
2019-02-14T10:00:20.032Z,99.90
2019-02-14T10:02:48.504Z,99.90
2019-02-14T10:05:17.146Z,99.90
2019-02-14T10:07:45.571Z,99.90
2019-02-14T10:10:17.067Z,99.90
2019-02-14T10:12:45.502Z,99.90
2019-02-14T10:15:14.044Z,99.90
2019-02-14T10:17:42.546Z,99.90
2019-02-14T10:20:13.530Z,99.90
2019-02-14T10:22:41.947Z,99.90
2019-02-14T10:25:11.218Z,99.90
2019-02-14T10:27:39.642Z,99.90
2019-02-14T10:30:11.160Z,99.90
2019-02-14T10:32:39.635Z,98.30
2019-02-14T10:35:08.117Z,97.40
2019-02-14T10:37:36.567Z,96.80
2019-02-14T10:40:13.286Z,98.20
2019-02-14T10:42:41.766Z,97.30
2019-02-14T10:45:12.822Z,98.50
2019-02-14T10:47:41.235Z,99.90
2019-02-14T10:50:11.187Z,99.40
2019-02-14T10:52:39.636Z,99.60
2019-02-14T10:55:10.359Z,96.00
2019-02-14T10:57:38.776Z,97.00
2019-02-14T11:00:16.999Z,97.50
2019-02-14T11:02:45.875Z,99.90
2019-02-14T11:05:15.348Z,99.90
2019-02-14T11:07:43.843Z,99.90
2019-02-14T11:10:16.330Z,99.90
2019-02-14T11:12:44.781Z,99.90
2019-02-14T11:15:19.135Z,99.90
2019-02-14T11:17:49.005Z,99.90
2019-02-14T11:20:18.053Z,99.90
2019-02-14T11:22:48.761Z,99.50
2019-02-14T11:25:29.049Z,98.00
2019-02-14T11:27:57.495Z,95.90
2019-02-14T11:30:25.939Z,98.20
2019-02-14T11:32:54.384Z,97.80
2019-02-14T11:35:22.831Z,97.60
2019-02-14T11:37:51.243Z,97.20
2019-02-14T11:40:19.686Z,98.30
2019-02-14T11:42:48.127Z,97.80
2019-02-14T11:45:21.635Z,97.10
2019-02-14T11:47:50.047Z,99.90
2019-02-14T11:50:19.859Z,99.90
2019-02-14T11:52:48.299Z,99.90
2019-02-14T11:55:16.726Z,99.90
2019-02-14T11:57:45.175Z,99.10
2019-02-14T12:00:27.818Z,99.90
2019-02-14T12:02:56.505Z,99.20
2019-02-14T12:05:25.117Z,99.30
2019-02-14T12:07:53.561Z,98.70
2019-02-14T12:10:21.987Z,99.70
2019-02-14T12:12:50.499Z,98.40
2019-02-14T12:15:19.011Z,97.70
2019-02-14T12:17:47.527Z,93.70
2019-02-14T12:20:19.147Z,96.90
2019-02-14T12:22:47.590Z,93.30
2019-02-14T12:25:27.656Z,93.90
2019-02-14T12:27:56.103Z,91.50
2019-02-14T12:30:24.519Z,93.40
2019-02-14T12:32:52.934Z,92.90
2019-02-14T12:35:21.380Z,92.30
2019-02-14T12:37:49.864Z,95.50
2019-02-14T12:40:18.347Z,94.80
2019-02-14T12:42:46.860Z,96.20
2019-02-14T12:45:21.729Z,94.80
2019-02-14T12:47:48.658Z,93.70
2019-02-14T12:50:17.135Z,94.60
2019-02-14T12:52:45.559Z,94.50
2019-02-14T12:55:14.121Z,94.10
2019-02-14T12:57:42.570Z,94.10
2019-02-14T13:00:17.035Z,94.80
2019-02-14T13:02:45.474Z,94.80
2019-02-14T13:05:13.910Z,93.90
2019-02-14T13:07:42.338Z,92.60
2019-02-14T13:10:13.029Z,92.80
2019-02-14T13:12:41.451Z,92.10
2019-02-14T13:15:21.223Z,93.70
2019-02-14T13:17:49.671Z,93.60
2019-02-14T13:20:18.215Z,94.50
2019-02-14T13:22:46.631Z,94.30
2019-02-14T13:25:15.127Z,92.70
2019-02-14T13:27:43.582Z,93.80
2019-02-14T13:30:15.206Z,93.60
2019-02-14T13:32:43.631Z,93.60
2019-02-14T13:35:12.067Z,94.50
2019-02-14T13:37:40.649Z,93.50
2019-02-14T13:40:09.619Z,93.30
2019-02-14T13:42:38.034Z,93.00
2019-02-14T13:45:09.575Z,92.50
2019-02-14T13:47:38.014Z,93.20
2019-02-14T13:50:09.279Z,94.10
2019-02-14T13:52:37.728Z,93.40
2019-02-14T13:55:08.215Z,92.70
2019-02-14T13:57:36.694Z,93.20
2019-02-14T14:00:19.658Z,94.30
2019-02-14T14:02:48.108Z,92.30
2019-02-14T14:05:16.783Z,91.50
2019-02-14T14:07:45.351Z,92.10
2019-02-14T14:10:13.800Z,92.50
2019-02-14T14:12:42.533Z,93.70
2019-02-14T14:15:12.110Z,94.30
2019-02-14T14:17:40.547Z,93.90
2019-02-14T14:20:09.900Z,94.80
2019-02-14T14:22:38.427Z,95.40
2019-02-14T14:25:08.594Z,90.30
2019-02-14T14:27:37.127Z,90.80
2019-02-14T14:30:13.659Z,91.30
2019-02-14T14:32:42.079Z,90.90
2019-02-14T14:35:11.380Z,92.50
2019-02-14T14:37:40.420Z,92.70
2019-02-14T14:40:20.321Z,93.10
2019-02-14T14:42:53.166Z,92.90
2019-02-14T14:45:39.607Z,92.70
2019-02-14T14:48:19.001Z,94.60
2019-02-14T14:50:39.830Z,93.30
2019-02-14T14:53:08.287Z,93.50
2019-02-14T14:55:36.723Z,92.50
2019-02-14T14:58:05.158Z,92.70
2019-02-14T15:00:33.614Z,90.80
2019-02-14T15:03:02.059Z,90.70
2019-02-14T15:05:30.544Z,91.40
2019-02-14T15:07:58.990Z,89.40
2019-02-14T15:10:27.423Z,92.70
2019-02-14T15:12:55.860Z,92.60
2019-02-14T15:15:24.289Z,93.10
2019-02-14T15:17:52.702Z,91.80
2019-02-14T15:20:21.175Z,93.00
2019-02-14T15:22:49.592Z,92.50
2019-02-14T15:25:18.028Z,92.50
2019-02-14T15:27:46.453Z,92.70
2019-02-14T15:30:14.973Z,91.60
2019-02-14T15:32:43.415Z,92.40
2019-02-14T15:35:11.846Z,91.00
2019-02-14T15:37:42.011Z,91.50
2019-02-14T15:40:10.679Z,91.30
2019-02-14T15:42:39.133Z,92.00
2019-02-14T15:45:08.603Z,93.10
2019-02-14T15:47:37.073Z,93.90
2019-02-14T15:50:08.967Z,94.30
2019-02-14T15:52:37.549Z,95.10
2019-02-14T15:55:07.403Z,95.00
2019-02-14T15:57:35.850Z,94.30
2019-02-14T16:00:07.994Z,94.60
2019-02-14T16:02:36.307Z,94.20
2019-02-14T16:05:05.782Z,94.80
2019-02-14T16:07:34.218Z,96.10
2019-02-14T16:10:03.766Z,96.60
2019-02-14T16:12:32.955Z,98.20
2019-02-14T16:15:01.405Z,99.00
2019-02-14T16:17:29.886Z,98.80
2019-02-14T16:19:59.753Z,99.50
2019-02-14T16:22:30.031Z,99.90
2019-02-14T16:24:58.371Z,99.90
2019-02-14T16:27:26.974Z,99.90
2019-02-14T16:29:55.445Z,99.70
2019-02-14T16:32:23.894Z,99.90
2019-02-14T16:34:52.315Z,99.90
2019-02-14T16:37:20.803Z,99.90
2019-02-14T16:39:51.746Z,99.90
2019-02-14T16:42:19.447Z,99.90
2019-02-14T16:44:47.866Z,99.90
2019-02-14T16:47:16.282Z,99.90
2019-02-14T16:49:44.768Z,99.90
2019-02-14T16:52:13.284Z,99.90
2019-02-14T16:54:41.722Z,99.90
2019-02-14T16:57:10.128Z,99.90
2019-02-14T16:59:38.601Z,99.90
2019-02-14T17:02:07.079Z,99.90
2019-02-14T17:04:35.511Z,99.90
2019-02-14T17:07:04.003Z,99.90
2019-02-14T17:09:32.502Z,99.90
2019-02-14T17:12:00.957Z,99.90
2019-02-14T17:14:29.365Z,99.90
2019-02-14T17:16:57.812Z,99.90
2019-02-14T17:19:26.234Z,99.90
2019-02-14T17:21:54.668Z,99.90
2019-02-14T17:24:23.075Z,99.90
2019-02-14T17:26:51.490Z,99.90
2019-02-14T17:29:19.954Z,99.90
2019-02-14T17:31:48.362Z,99.90
2019-02-14T17:34:16.795Z,99.90
2019-02-14T17:36:45.227Z,99.90
2019-02-14T17:39:13.715Z,99.90
2019-02-14T17:41:42.173Z,99.90
2019-02-14T17:44:10.611Z,99.90
2019-02-14T17:46:39.046Z,99.90
2019-02-14T17:49:07.535Z,99.90
2019-02-14T17:51:36.055Z,99.90
2019-02-14T17:54:04.564Z,99.90
2019-02-14T17:56:32.994Z,99.90
2019-02-14T17:59:01.969Z,99.90
2019-02-14T18:01:30.469Z,99.90
2019-02-14T18:03:58.875Z,99.90
2019-02-14T18:06:27.296Z,99.90
2019-02-14T18:08:55.747Z,99.90
2019-02-14T18:11:24.167Z,99.90
2019-02-14T18:13:52.634Z,99.90
2019-02-14T18:16:21.040Z,99.90
2019-02-14T18:18:49.479Z,99.90
2019-02-14T18:21:17.911Z,99.90
2019-02-14T18:23:46.395Z,99.90
2019-02-14T18:26:14.894Z,99.90
2019-02-14T18:28:43.339Z,99.90
2019-02-14T18:31:11.877Z,99.90
2019-02-14T18:33:40.326Z,99.90
2019-02-14T18:36:08.741Z,99.90
2019-02-14T18:38:37.256Z,99.90
2019-02-14T18:41:05.704Z,99.90
2019-02-14T18:43:34.149Z,99.90
2019-02-14T18:46:02.644Z,99.90
2019-02-14T18:48:31.075Z,99.90
2019-02-14T18:50:59.548Z,99.90
2019-02-14T18:53:27.984Z,99.90
2019-02-14T18:55:56.426Z,99.90
2019-02-14T18:58:26.672Z,99.90
2019-02-14T19:00:55.000Z,99.90
2019-02-14T19:03:23.448Z,99.90
2019-02-14T19:05:51.864Z,99.90
2019-02-14T19:08:20.326Z,99.90
2019-02-14T19:10:48.751Z,99.90
2019-02-14T19:13:18.813Z,99.90
2019-02-14T19:15:47.500Z,99.90
2019-02-14T19:18:15.921Z,99.90
2019-02-14T19:20:44.365Z,99.90
2019-02-14T19:23:23.341Z,99.90
2019-02-14T19:25:42.942Z,99.90
2019-02-14T19:28:11.469Z,99.90
2019-02-14T19:30:39.869Z,99.90
2019-02-14T19:33:08.335Z,99.90
2019-02-14T19:35:36.747Z,99.90
2019-02-14T19:38:05.289Z,99.90
2019-02-14T19:40:33.756Z,99.90
2019-02-14T19:43:02.263Z,99.90
2019-02-14T19:45:36.726Z,99.90
2019-02-14T19:48:00.854Z,99.90
2019-02-14T19:50:29.271Z,99.90
2019-02-14T19:52:57.704Z,99.90
2019-02-14T19:55:26.178Z,99.90
2019-02-14T19:57:54.584Z,99.90
2019-02-14T20:00:23.036Z,99.90
2019-02-14T20:02:51.464Z,99.90
2019-02-14T20:05:19.882Z,99.90
2019-02-14T20:07:48.367Z,99.90
2019-02-14T20:10:16.938Z,99.90
2019-02-14T20:12:45.373Z,99.90
2019-02-14T20:15:15.982Z,99.90
2019-02-14T20:17:44.411Z,99.90
2019-02-14T20:20:12.825Z,99.90
2019-02-14T20:22:41.286Z,99.90
2019-02-14T20:25:15.535Z,99.90
2019-02-14T20:27:44.114Z,99.90
2019-02-14T20:30:12.555Z,99.90
2019-02-14T20:32:40.954Z,99.90
2019-02-14T20:35:09.763Z,99.90
2019-02-14T20:37:38.211Z,99.90
2019-02-14T20:40:09.323Z,99.90
2019-02-14T20:42:37.863Z,99.90
2019-02-14T20:45:09.330Z,99.90
2019-02-14T20:47:37.815Z,99.90
2019-02-14T20:50:09.347Z,99.90
2019-02-14T20:52:37.836Z,99.90
2019-02-14T20:55:09.587Z,99.90
2019-02-14T20:57:38.016Z,99.90
2019-02-14T21:00:11.224Z,99.90
2019-02-14T21:02:39.654Z,99.90
2019-02-14T21:05:08.221Z,99.90
2019-02-14T21:07:36.631Z,99.90
2019-02-14T21:10:06.890Z,99.90
2019-02-14T21:12:35.408Z,99.90
2019-02-14T21:15:04.594Z,99.90
2019-02-14T21:17:33.051Z,99.90
2019-02-14T21:20:01.539Z,99.90
2019-02-14T21:22:29.997Z,99.90
2019-02-14T21:24:58.422Z,99.90
2019-02-14T21:27:26.928Z,99.90
2019-02-14T21:29:55.367Z,99.90
2019-02-14T21:32:23.844Z,99.90
2019-02-14T21:34:52.271Z,99.90
2019-02-14T21:37:20.791Z,99.90
2019-02-14T21:39:49.386Z,99.90
2019-02-14T21:42:21.717Z,99.90
2019-02-14T21:44:47.958Z,99.90
2019-02-14T21:47:16.457Z,99.90
2019-02-14T21:49:45.006Z,99.90
2019-02-14T21:52:13.507Z,99.90
2019-02-14T21:54:41.910Z,99.90
2019-02-14T21:57:10.490Z,99.90
2019-02-14T21:59:39.272Z,99.90
2019-02-14T22:02:07.679Z,99.90
2019-02-14T22:04:36.121Z,99.90
2019-02-14T22:07:04.924Z,99.90
2019-02-14T22:09:33.489Z,99.90
2019-02-14T22:12:01.920Z,99.90
2019-02-14T22:14:30.451Z,99.90
2019-02-14T22:16:58.879Z,99.90
2019-02-14T22:19:27.274Z,99.90
2019-02-14T22:21:55.731Z,99.90
2019-02-14T22:24:24.154Z,99.90
2019-02-14T22:26:52.578Z,99.90
2019-02-14T22:29:21.091Z,99.90
2019-02-14T22:31:49.481Z,99.90
2019-02-14T22:34:17.921Z,99.90
2019-02-14T22:36:46.411Z,99.90
2019-02-14T22:39:14.850Z,99.90
2019-02-14T22:41:43.332Z,99.90
2019-02-14T22:44:11.860Z,99.90
2019-02-14T22:46:40.316Z,99.90
2019-02-14T22:49:08.719Z,99.90
2019-02-14T22:51:37.142Z,99.90
2019-02-14T22:54:05.547Z,99.90
2019-02-14T22:56:33.973Z,99.90
2019-02-14T22:59:02.434Z,99.90
2019-02-14T23:01:31.622Z,99.90
2019-02-14T23:04:00.023Z,99.90
2019-02-14T23:06:28.797Z,99.90
2019-02-14T23:08:57.298Z,99.90
2019-02-14T23:11:25.770Z,99.90
2019-02-14T23:13:54.187Z,99.90
2019-02-14T23:16:22.598Z,99.90
2019-02-14T23:18:51.024Z,99.90
2019-02-14T23:21:19.449Z,99.90
2019-02-14T23:23:47.871Z,99.90
2019-02-14T23:26:16.373Z,99.90
2019-02-14T23:28:44.779Z,99.90
2019-02-14T23:31:13.203Z,99.90
2019-02-14T23:33:41.639Z,99.90
2019-02-14T23:36:10.070Z,99.90
2019-02-14T23:38:38.482Z,99.90
2019-02-14T23:41:06.893Z,99.90
2019-02-14T23:43:35.325Z,99.90
2019-02-14T23:46:03.764Z,99.90
2019-02-14T23:48:32.199Z,99.90
2019-02-14T23:51:00.595Z,99.90
2019-02-14T23:53:29.031Z,99.90
2019-02-14T23:55:57.448Z,99.90
2019-02-14T23:58:25.888Z,99.90
